sensor_id;sensor_type;location;lat;lon;timestamp;temperature;humidity
69543;SHT31;56762;49.494;11.768;2023-06-24T00:00:52;15.49;88.19
69543;SHT31;56762;49.494;11.768;2023-06-24T00:03:20;15.49;88.14
69543;SHT31;56762;49.494;11.768;2023-06-24T00:05:48;15.47;88.10
69543;SHT31;56762;49.494;11.768;2023-06-24T00:08:16;15.48;88.18
69543;SHT31;56762;49.494;11.768;2023-06-24T00:10:46;15.44;88.26
69543;SHT31;56762;49.494;11.768;2023-06-24T00:13:16;15.45;87.92
69543;SHT31;56762;49.494;11.768;2023-06-24T00:15:44;15.42;87.80
69543;SHT31;56762;49.494;11.768;2023-06-24T00:18:12;15.45;87.67
69543;SHT31;56762;49.494;11.768;2023-06-24T00:20:40;15.42;87.53
69543;SHT31;56762;49.494;11.768;2023-06-24T00:23:10;15.42;87.68
69543;SHT31;56762;49.494;11.768;2023-06-24T00:25:41;15.42;87.52
69543;SHT31;56762;49.494;11.768;2023-06-24T00:28:09;15.42;87.68
69543;SHT31;56762;49.494;11.768;2023-06-24T00:30:38;15.39;87.79
69543;SHT31;56762;49.494;11.768;2023-06-24T00:33:05;15.39;87.69
69543;SHT31;56762;49.494;11.768;2023-06-24T00:35:36;15.37;87.77
69543;SHT31;56762;49.494;11.768;2023-06-24T00:38:03;15.37;87.54
69543;SHT31;56762;49.494;11.768;2023-06-24T00:40:32;15.35;87.72
69543;SHT31;56762;49.494;11.768;2023-06-24T00:43:00;15.38;87.68
69543;SHT31;56762;49.494;11.768;2023-06-24T00:45:29;15.35;87.89
69543;SHT31;56762;49.494;11.768;2023-06-24T00:47:59;15.32;87.89
69543;SHT31;56762;49.494;11.768;2023-06-24T00:50:27;15.32;88.06
69543;SHT31;56762;49.494;11.768;2023-06-24T00:52:55;15.32;87.88
69543;SHT31;56762;49.494;11.768;2023-06-24T00:55:23;15.31;87.84
69543;SHT31;56762;49.494;11.768;2023-06-24T00:57:52;15.31;87.65
69543;SHT31;56762;49.494;11.768;2023-06-24T01:00:21;15.30;87.94
69543;SHT31;56762;49.494;11.768;2023-06-24T01:02:50;15.26;87.98
69543;SHT31;56762;49.494;11.768;2023-06-24T01:05:19;15.30;88.07
69543;SHT31;56762;49.494;11.768;2023-06-24T01:07:51;15.23;88.10
69543;SHT31;56762;49.494;11.768;2023-06-24T01:10:23;15.21;87.91
69543;SHT31;56762;49.494;11.768;2023-06-24T01:12:51;15.21;88.19
69543;SHT31;56762;49.494;11.768;2023-06-24T01:15:20;15.26;88.35
69543;SHT31;56762;49.494;11.768;2023-06-24T01:17:52;15.21;88.20
69543;SHT31;56762;49.494;11.768;2023-06-24T01:20:27;15.21;88.16
69543;SHT31;56762;49.494;11.768;2023-06-24T01:26:20;15.20;88.02
69543;SHT31;56762;49.494;11.768;2023-06-24T01:29:01;15.17;88.07
69543;SHT31;56762;49.494;11.768;2023-06-24T01:31:38;15.17;88.24
69543;SHT31;56762;49.494;11.768;2023-06-24T01:34:14;15.21;88.25
69543;SHT31;56762;49.494;11.768;2023-06-24T01:37:00;15.20;88.30
69543;SHT31;56762;49.494;11.768;2023-06-24T01:39:34;15.24;88.36
69543;SHT31;56762;49.494;11.768;2023-06-24T01:42:08;15.26;88.27
69543;SHT31;56762;49.494;11.768;2023-06-24T01:44:38;15.26;88.32
69543;SHT31;56762;49.494;11.768;2023-06-24T01:47:09;15.27;88.33
69543;SHT31;56762;49.494;11.768;2023-06-24T01:49:41;15.27;88.38
69543;SHT31;56762;49.494;11.768;2023-06-24T01:52:10;15.30;88.35
69543;SHT31;56762;49.494;11.768;2023-06-24T01:54:41;15.31;88.29
69543;SHT31;56762;49.494;11.768;2023-06-24T01:57:11;15.28;88.27
69543;SHT31;56762;49.494;11.768;2023-06-24T01:59:40;15.30;88.29
69543;SHT31;56762;49.494;11.768;2023-06-24T02:02:12;15.30;88.22
69543;SHT31;56762;49.494;11.768;2023-06-24T02:04:40;15.31;88.19
69543;SHT31;56762;49.494;11.768;2023-06-24T02:07:11;15.32;88.24
69543;SHT31;56762;49.494;11.768;2023-06-24T02:09:41;15.31;88.19
69543;SHT31;56762;49.494;11.768;2023-06-24T02:12:11;15.30;88.38
69543;SHT31;56762;49.494;11.768;2023-06-24T02:14:40;15.28;88.49
69543;SHT31;56762;49.494;11.768;2023-06-24T02:17:09;15.30;88.46
69543;SHT31;56762;49.494;11.768;2023-06-24T02:19:39;15.27;88.66
69543;SHT31;56762;49.494;11.768;2023-06-24T02:22:08;15.27;88.66
69543;SHT31;56762;49.494;11.768;2023-06-24T02:24:37;15.26;88.64
69543;SHT31;56762;49.494;11.768;2023-06-24T02:27:06;15.24;88.94
69543;SHT31;56762;49.494;11.768;2023-06-24T02:29:35;15.20;88.96
69543;SHT31;56762;49.494;11.768;2023-06-24T02:32:05;15.18;89.30
69543;SHT31;56762;49.494;11.768;2023-06-24T02:34:33;15.21;89.15
69543;SHT31;56762;49.494;11.768;2023-06-24T02:37:01;15.16;89.40
69543;SHT31;56762;49.494;11.768;2023-06-24T02:39:30;15.14;89.57
69543;SHT31;56762;49.494;11.768;2023-06-24T02:41:58;15.12;89.65
69543;SHT31;56762;49.494;11.768;2023-06-24T02:44:26;15.16;89.77
69543;SHT31;56762;49.494;11.768;2023-06-24T02:46:54;15.18;89.38
69543;SHT31;56762;49.494;11.768;2023-06-24T02:49:23;15.18;89.54
69543;SHT31;56762;49.494;11.768;2023-06-24T02:51:51;15.21;89.44
69543;SHT31;56762;49.494;11.768;2023-06-24T02:54:20;15.17;89.30
69543;SHT31;56762;49.494;11.768;2023-06-24T02:56:48;15.21;89.62
69543;SHT31;56762;49.494;11.768;2023-06-24T02:59:16;15.20;89.66
69543;SHT31;56762;49.494;11.768;2023-06-24T03:01:47;15.18;89.93
69543;SHT31;56762;49.494;11.768;2023-06-24T03:04:15;15.20;89.28
69543;SHT31;56762;49.494;11.768;2023-06-24T03:06:43;15.21;89.41
69543;SHT31;56762;49.494;11.768;2023-06-24T03:09:12;15.23;89.37
69543;SHT31;56762;49.494;11.768;2023-06-24T03:11:43;15.24;89.46
69543;SHT31;56762;49.494;11.768;2023-06-24T03:14:13;15.23;89.75
69543;SHT31;56762;49.494;11.768;2023-06-24T03:16:41;15.23;89.83
69543;SHT31;56762;49.494;11.768;2023-06-24T03:19:09;15.21;90.04
69543;SHT31;56762;49.494;11.768;2023-06-24T03:21:37;15.27;90.13
69543;SHT31;56762;49.494;11.768;2023-06-24T03:24:05;15.26;90.07
69543;SHT31;56762;49.494;11.768;2023-06-24T03:26:34;15.28;90.07
69543;SHT31;56762;49.494;11.768;2023-06-24T03:29:03;15.28;89.94
69543;SHT31;56762;49.494;11.768;2023-06-24T03:31:34;15.31;89.99
69543;SHT31;56762;49.494;11.768;2023-06-24T03:34:01;15.31;89.87
69543;SHT31;56762;49.494;11.768;2023-06-24T03:36:29;15.32;89.87
69543;SHT31;56762;49.494;11.768;2023-06-24T03:38:57;15.35;90.14
69543;SHT31;56762;49.494;11.768;2023-06-24T03:41:25;15.35;90.05
69543;SHT31;56762;49.494;11.768;2023-06-24T03:43:53;15.35;90.13
69543;SHT31;56762;49.494;11.768;2023-06-24T03:46:23;15.37;90.34
69543;SHT31;56762;49.494;11.768;2023-06-24T03:48:52;15.38;89.97
69543;SHT31;56762;49.494;11.768;2023-06-24T03:51:20;15.41;89.84
69543;SHT31;56762;49.494;11.768;2023-06-24T03:53:48;15.44;89.88
69543;SHT31;56762;49.494;11.768;2023-06-24T03:56:16;15.44;89.75
69543;SHT31;56762;49.494;11.768;2023-06-24T03:58:44;15.45;89.57
69543;SHT31;56762;49.494;11.768;2023-06-24T04:01:12;15.47;89.40
69543;SHT31;56762;49.494;11.768;2023-06-24T04:03:41;15.47;89.56
69543;SHT31;56762;49.494;11.768;2023-06-24T04:06:09;15.49;89.62
69543;SHT31;56762;49.494;11.768;2023-06-24T04:08:37;15.51;89.63
69543;SHT31;56762;49.494;11.768;2023-06-24T04:11:06;15.49;89.63
69543;SHT31;56762;49.494;11.768;2023-06-24T04:13:34;15.49;89.89
69543;SHT31;56762;49.494;11.768;2023-06-24T04:16:02;15.49;89.78
69543;SHT31;56762;49.494;11.768;2023-06-24T04:18:30;15.54;89.70
69543;SHT31;56762;49.494;11.768;2023-06-24T04:20:59;15.49;89.52
69543;SHT31;56762;49.494;11.768;2023-06-24T04:23:27;15.48;89.69
69543;SHT31;56762;49.494;11.768;2023-06-24T04:25:55;15.47;89.90
69543;SHT31;56762;49.494;11.768;2023-06-24T04:28:23;15.49;89.90
69543;SHT31;56762;49.494;11.768;2023-06-24T04:30:51;15.48;89.93
69543;SHT31;56762;49.494;11.768;2023-06-24T04:33:19;15.49;89.76
69543;SHT31;56762;49.494;11.768;2023-06-24T04:35:47;15.47;89.57
69543;SHT31;56762;49.494;11.768;2023-06-24T04:38:16;15.47;89.22
69543;SHT31;56762;49.494;11.768;2023-06-24T04:40:45;15.48;89.19
69543;SHT31;56762;49.494;11.768;2023-06-24T04:43:12;15.47;89.23
69543;SHT31;56762;49.494;11.768;2023-06-24T04:45:41;15.47;89.08
69543;SHT31;56762;49.494;11.768;2023-06-24T04:48:08;15.48;89.38
69543;SHT31;56762;49.494;11.768;2023-06-24T04:50:36;15.59;88.55
69543;SHT31;56762;49.494;11.768;2023-06-24T04:53:05;15.70;88.12
69543;SHT31;56762;49.494;11.768;2023-06-24T04:55:34;15.85;87.82
69543;SHT31;56762;49.494;11.768;2023-06-24T04:58:02;15.96;87.36
69543;SHT31;56762;49.494;11.768;2023-06-24T05:00:30;16.08;87.02
69543;SHT31;56762;49.494;11.768;2023-06-24T05:02:58;16.20;86.26
69543;SHT31;56762;49.494;11.768;2023-06-24T05:05:26;16.27;85.94
69543;SHT31;56762;49.494;11.768;2023-06-24T05:07:55;16.34;85.99
69543;SHT31;56762;49.494;11.768;2023-06-24T05:10:22;16.41;85.75
69543;SHT31;56762;49.494;11.768;2023-06-24T05:12:52;16.50;85.35
69543;SHT31;56762;49.494;11.768;2023-06-24T05:15:19;16.64;85.03
69543;SHT31;56762;49.494;11.768;2023-06-24T05:17:48;16.74;84.65
69543;SHT31;56762;49.494;11.768;2023-06-24T05:20:19;16.85;84.53
69543;SHT31;56762;49.494;11.768;2023-06-24T05:22:47;16.81;84.35
69543;SHT31;56762;49.494;11.768;2023-06-24T05:25:14;16.75;83.97
69543;SHT31;56762;49.494;11.768;2023-06-24T05:27:42;16.72;84.43
69543;SHT31;56762;49.494;11.768;2023-06-24T05:30:13;16.70;84.19
69543;SHT31;56762;49.494;11.768;2023-06-24T05:32:41;16.75;84.26
69543;SHT31;56762;49.494;11.768;2023-06-24T05:35:09;16.82;85.17
69543;SHT31;56762;49.494;11.768;2023-06-24T05:37:36;17.01;85.39
69543;SHT31;56762;49.494;11.768;2023-06-24T05:40:06;17.19;85.08
69543;SHT31;56762;49.494;11.768;2023-06-24T05:42:35;17.29;84.85
69543;SHT31;56762;49.494;11.768;2023-06-24T05:45:03;17.38;84.15
69543;SHT31;56762;49.494;11.768;2023-06-24T05:47:32;17.43;83.99
69543;SHT31;56762;49.494;11.768;2023-06-24T05:50:00;17.47;83.77
69543;SHT31;56762;49.494;11.768;2023-06-24T05:52:28;17.57;83.52
69543;SHT31;56762;49.494;11.768;2023-06-24T05:54:56;17.69;83.06
69543;SHT31;56762;49.494;11.768;2023-06-24T05:57:24;17.86;82.62
69543;SHT31;56762;49.494;11.768;2023-06-24T05:59:52;17.98;81.52
69543;SHT31;56762;49.494;11.768;2023-06-24T06:02:20;18.04;81.65
69543;SHT31;56762;49.494;11.768;2023-06-24T06:04:49;18.15;81.26
69543;SHT31;56762;49.494;11.768;2023-06-24T06:07:18;18.20;80.12
69543;SHT31;56762;49.494;11.768;2023-06-24T06:09:46;18.24;80.62
69543;SHT31;56762;49.494;11.768;2023-06-24T06:12:14;18.32;80.36
69543;SHT31;56762;49.494;11.768;2023-06-24T06:14:42;18.39;79.73
69543;SHT31;56762;49.494;11.768;2023-06-24T06:17:09;18.47;79.72
69543;SHT31;56762;49.494;11.768;2023-06-24T06:19:38;18.53;79.46
69543;SHT31;56762;49.494;11.768;2023-06-24T06:22:09;18.58;79.30
69543;SHT31;56762;49.494;11.768;2023-06-24T06:24:39;18.63;78.40
69543;SHT31;56762;49.494;11.768;2023-06-24T06:27:09;18.63;77.87
69543;SHT31;56762;49.494;11.768;2023-06-24T06:29:37;18.68;78.19
69543;SHT31;56762;49.494;11.768;2023-06-24T06:32:05;18.72;78.05
69543;SHT31;56762;49.494;11.768;2023-06-24T06:34:33;18.72;78.33
69543;SHT31;56762;49.494;11.768;2023-06-24T06:37:01;18.79;78.07
69543;SHT31;56762;49.494;11.768;2023-06-24T06:39:30;18.92;78.04
69543;SHT31;56762;49.494;11.768;2023-06-24T06:41:58;18.98;76.91
69543;SHT31;56762;49.494;11.768;2023-06-24T06:44:26;19.13;77.65
69543;SHT31;56762;49.494;11.768;2023-06-24T06:46:53;19.21;77.75
69543;SHT31;56762;49.494;11.768;2023-06-24T06:49:21;19.30;76.86
69543;SHT31;56762;49.494;11.768;2023-06-24T06:51:53;19.38;74.84
69543;SHT31;56762;49.494;11.768;2023-06-24T06:54:21;19.48;75.48
69543;SHT31;56762;49.494;11.768;2023-06-24T06:56:50;19.50;75.76
69543;SHT31;56762;49.494;11.768;2023-06-24T06:59:19;19.60;74.87
69543;SHT31;56762;49.494;11.768;2023-06-24T07:01:46;19.72;75.91
69543;SHT31;56762;49.494;11.768;2023-06-24T07:04:14;19.81;75.81
69543;SHT31;56762;49.494;11.768;2023-06-24T07:06:42;19.83;74.08
69543;SHT31;56762;49.494;11.768;2023-06-24T07:09:10;19.95;74.95
69543;SHT31;56762;49.494;11.768;2023-06-24T07:11:38;20.04;74.73
69543;SHT31;56762;49.494;11.768;2023-06-24T07:14:07;20.13;74.87
69543;SHT31;56762;49.494;11.768;2023-06-24T07:16:35;20.22;74.18
69543;SHT31;56762;49.494;11.768;2023-06-24T07:19:03;20.23;73.37
69543;SHT31;56762;49.494;11.768;2023-06-24T07:21:31;20.18;73.15
69543;SHT31;56762;49.494;11.768;2023-06-24T07:23:59;20.12;73.27
69543;SHT31;56762;49.494;11.768;2023-06-24T07:26:26;20.10;73.58
69543;SHT31;56762;49.494;11.768;2023-06-24T07:28:57;19.89;72.50
69543;SHT31;56762;49.494;11.768;2023-06-24T07:31:36;19.79;73.29
69543;SHT31;56762;49.494;11.768;2023-06-24T07:34:05;19.78;73.83
69543;SHT31;56762;49.494;11.768;2023-06-24T07:36:32;19.79;73.35
69543;SHT31;56762;49.494;11.768;2023-06-24T07:39:00;19.74;73.53
69543;SHT31;56762;49.494;11.768;2023-06-24T07:41:28;19.69;74.47
69543;SHT31;56762;49.494;11.768;2023-06-24T07:43:56;19.68;74.79
69543;SHT31;56762;49.494;11.768;2023-06-24T07:46:24;19.68;75.15
69543;SHT31;56762;49.494;11.768;2023-06-24T07:48:54;19.64;75.47
69543;SHT31;56762;49.494;11.768;2023-06-24T07:51:22;19.65;74.83
69543;SHT31;56762;49.494;11.768;2023-06-24T07:53:51;19.64;73.61
69543;SHT31;56762;49.494;11.768;2023-06-24T07:56:18;19.62;73.64
69543;SHT31;56762;49.494;11.768;2023-06-24T07:58:46;19.58;73.27
69543;SHT31;56762;49.494;11.768;2023-06-24T08:01:14;19.55;71.67
69543;SHT31;56762;49.494;11.768;2023-06-24T08:03:42;19.53;72.28
69543;SHT31;56762;49.494;11.768;2023-06-24T08:06:11;19.53;73.27
69543;SHT31;56762;49.494;11.768;2023-06-24T08:08:39;19.53;70.70
69543;SHT31;56762;49.494;11.768;2023-06-24T08:11:07;19.53;71.67
69543;SHT31;56762;49.494;11.768;2023-06-24T08:13:35;19.51;72.07
69543;SHT31;56762;49.494;11.768;2023-06-24T08:16:02;19.54;72.89
69543;SHT31;56762;49.494;11.768;2023-06-24T08:18:30;19.58;72.74
69543;SHT31;56762;49.494;11.768;2023-06-24T08:21:00;19.62;72.71
69543;SHT31;56762;49.494;11.768;2023-06-24T08:23:29;19.62;71.45
69543;SHT31;56762;49.494;11.768;2023-06-24T08:25:57;19.62;72.20
69543;SHT31;56762;49.494;11.768;2023-06-24T08:28:42;19.69;73.47
69543;SHT31;56762;49.494;11.768;2023-06-24T08:31:10;19.72;73.26
69543;SHT31;56762;49.494;11.768;2023-06-24T08:33:37;19.69;72.65
69543;SHT31;56762;49.494;11.768;2023-06-24T08:36:06;19.74;72.42
69543;SHT31;56762;49.494;11.768;2023-06-24T08:38:35;19.75;70.93
69543;SHT31;56762;49.494;11.768;2023-06-24T08:41:03;19.74;67.23
69543;SHT31;56762;49.494;11.768;2023-06-24T08:43:30;19.74;66.48
69543;SHT31;56762;49.494;11.768;2023-06-24T08:45:58;19.74;68.55
69543;SHT31;56762;49.494;11.768;2023-06-24T08:48:26;19.72;69.06
69543;SHT31;56762;49.494;11.768;2023-06-24T08:50:58;19.74;69.38
69543;SHT31;56762;49.494;11.768;2023-06-24T08:53:27;19.79;66.55
69543;SHT31;56762;49.494;11.768;2023-06-24T08:55:57;19.82;66.68
69543;SHT31;56762;49.494;11.768;2023-06-24T08:58:26;19.85;66.60
69543;SHT31;56762;49.494;11.768;2023-06-24T09:00:54;19.82;67.07
69543;SHT31;56762;49.494;11.768;2023-06-24T09:03:22;19.81;67.68
69543;SHT31;56762;49.494;11.768;2023-06-24T09:05:50;19.81;67.75
69543;SHT31;56762;49.494;11.768;2023-06-24T09:08:18;19.85;65.83
69543;SHT31;56762;49.494;11.768;2023-06-24T09:10:53;19.91;65.15
69543;SHT31;56762;49.494;11.768;2023-06-24T09:13:27;19.89;66.45
69543;SHT31;56762;49.494;11.768;2023-06-24T09:16:11;19.93;65.20
69543;SHT31;56762;49.494;11.768;2023-06-24T09:18:39;20.00;63.21
69543;SHT31;56762;49.494;11.768;2023-06-24T09:21:07;20.08;62.71
69543;SHT31;56762;49.494;11.768;2023-06-24T09:23:35;20.08;64.78
69543;SHT31;56762;49.494;11.768;2023-06-24T09:26:03;20.06;63.81
69543;SHT31;56762;49.494;11.768;2023-06-24T09:28:33;20.18;61.49
69543;SHT31;56762;49.494;11.768;2023-06-24T09:31:06;20.28;62.31
69543;SHT31;56762;49.494;11.768;2023-06-24T09:33:45;20.26;60.89
69543;SHT31;56762;49.494;11.768;2023-06-24T09:36:13;20.30;60.93
69543;SHT31;56762;49.494;11.768;2023-06-24T09:38:42;20.40;63.39
69543;SHT31;56762;49.494;11.768;2023-06-24T09:41:11;20.53;62.11
69543;SHT31;56762;49.494;11.768;2023-06-24T09:43:42;20.54;62.01
69543;SHT31;56762;49.494;11.768;2023-06-24T09:46:11;20.60;59.74
69543;SHT31;56762;49.494;11.768;2023-06-24T09:48:39;20.57;59.53
69543;SHT31;56762;49.494;11.768;2023-06-24T09:51:08;20.53;60.57
69543;SHT31;56762;49.494;11.768;2023-06-24T09:53:36;20.53;60.54
69543;SHT31;56762;49.494;11.768;2023-06-24T09:56:07;20.57;57.64
69543;SHT31;56762;49.494;11.768;2023-06-24T09:58:36;20.54;58.47
69543;SHT31;56762;49.494;11.768;2023-06-24T10:01:06;20.53;58.48
69543;SHT31;56762;49.494;11.768;2023-06-24T10:03:35;20.61;57.98
69543;SHT31;56762;49.494;11.768;2023-06-24T10:06:05;20.64;57.27
69543;SHT31;56762;49.494;11.768;2023-06-24T10:08:33;20.66;58.77
69543;SHT31;56762;49.494;11.768;2023-06-24T10:11:01;20.69;58.93
69543;SHT31;56762;49.494;11.768;2023-06-24T10:13:29;20.71;57.36
69543;SHT31;56762;49.494;11.768;2023-06-24T10:15:58;20.76;55.79
69543;SHT31;56762;49.494;11.768;2023-06-24T10:18:37;20.74;57.52
69543;SHT31;56762;49.494;11.768;2023-06-24T10:21:08;20.84;56.29
69543;SHT31;56762;49.494;11.768;2023-06-24T10:23:40;20.91;57.48
69543;SHT31;56762;49.494;11.768;2023-06-24T10:26:09;20.85;56.49
69543;SHT31;56762;49.494;11.768;2023-06-24T10:29:09;20.80;57.95
69543;SHT31;56762;49.494;11.768;2023-06-24T10:31:50;20.71;58.97
69543;SHT31;56762;49.494;11.768;2023-06-24T10:34:31;20.71;59.07
69543;SHT31;56762;49.494;11.768;2023-06-24T10:37:01;20.70;59.62
69543;SHT31;56762;49.494;11.768;2023-06-24T10:39:45;20.73;58.50
69543;SHT31;56762;49.494;11.768;2023-06-24T10:42:31;20.67;56.76
69543;SHT31;56762;49.494;11.768;2023-06-24T10:45:01;20.66;57.83
69543;SHT31;56762;49.494;11.768;2023-06-24T10:47:29;20.63;58.76
69543;SHT31;56762;49.494;11.768;2023-06-24T10:49:58;20.63;57.22
69543;SHT31;56762;49.494;11.768;2023-06-24T10:52:26;20.61;58.66
69543;SHT31;56762;49.494;11.768;2023-06-24T10:54:57;20.64;58.49
69543;SHT31;56762;49.494;11.768;2023-06-24T10:57:25;20.64;59.15
69543;SHT31;56762;49.494;11.768;2023-06-24T10:59:55;20.71;58.57
69543;SHT31;56762;49.494;11.768;2023-06-24T11:02:24;20.81;56.86
69543;SHT31;56762;49.494;11.768;2023-06-24T11:04:54;20.83;56.29
69543;SHT31;56762;49.494;11.768;2023-06-24T11:07:24;21.05;54.30
69543;SHT31;56762;49.494;11.768;2023-06-24T11:09:53;21.17;54.07
69543;SHT31;56762;49.494;11.768;2023-06-24T11:12:23;21.25;52.76
69543;SHT31;56762;49.494;11.768;2023-06-24T11:14:55;21.29;53.30
69543;SHT31;56762;49.494;11.768;2023-06-24T11:17:23;21.37;52.04
69543;SHT31;56762;49.494;11.768;2023-06-24T11:19:52;21.37;51.92
69543;SHT31;56762;49.494;11.768;2023-06-24T11:22:21;21.35;52.93
69543;SHT31;56762;49.494;11.768;2023-06-24T11:24:50;21.32;53.07
69543;SHT31;56762;49.494;11.768;2023-06-24T11:27:24;21.37;52.89
69543;SHT31;56762;49.494;11.768;2023-06-24T11:29:54;21.38;52.33
69543;SHT31;56762;49.494;11.768;2023-06-24T11:32:24;21.45;54.61
69543;SHT31;56762;49.494;11.768;2023-06-24T11:34:52;21.55;52.79
69543;SHT31;56762;49.494;11.768;2023-06-24T11:37:30;21.48;54.17
69543;SHT31;56762;49.494;11.768;2023-06-24T11:40:04;21.43;55.07
69543;SHT31;56762;49.494;11.768;2023-06-24T11:42:33;21.41;52.54
69543;SHT31;56762;49.494;11.768;2023-06-24T11:45:04;21.38;53.14
69543;SHT31;56762;49.494;11.768;2023-06-24T11:47:33;21.39;52.28
69543;SHT31;56762;49.494;11.768;2023-06-24T11:50:02;21.45;53.99
69543;SHT31;56762;49.494;11.768;2023-06-24T11:52:40;21.49;51.76
69543;SHT31;56762;49.494;11.768;2023-06-24T11:55:18;21.48;51.43
69543;SHT31;56762;49.494;11.768;2023-06-24T11:57:47;21.56;50.09
69543;SHT31;56762;49.494;11.768;2023-06-24T12:00:16;21.75;49.75
69543;SHT31;56762;49.494;11.768;2023-06-24T12:02:44;21.73;50.43
69543;SHT31;56762;49.494;11.768;2023-06-24T12:05:12;21.75;50.90
69543;SHT31;56762;49.494;11.768;2023-06-24T12:07:42;21.86;46.94
69543;SHT31;56762;49.494;11.768;2023-06-24T12:10:10;21.92;48.10
69543;SHT31;56762;49.494;11.768;2023-06-24T12:12:40;21.85;49.52
69543;SHT31;56762;49.494;11.768;2023-06-24T12:15:08;21.80;49.14
69543;SHT31;56762;49.494;11.768;2023-06-24T12:17:35;21.78;48.18
69543;SHT31;56762;49.494;11.768;2023-06-24T12:20:08;21.97;46.64
69543;SHT31;56762;49.494;11.768;2023-06-24T12:22:36;21.93;48.01
69543;SHT31;56762;49.494;11.768;2023-06-24T12:25:05;21.80;48.38
69543;SHT31;56762;49.494;11.768;2023-06-24T12:27:33;21.80;46.99
69543;SHT31;56762;49.494;11.768;2023-06-24T12:30:03;21.85;47.13
69543;SHT31;56762;49.494;11.768;2023-06-24T12:32:31;21.89;48.78
69543;SHT31;56762;49.494;11.768;2023-06-24T12:35:02;21.89;49.47
69543;SHT31;56762;49.494;11.768;2023-06-24T12:37:31;21.83;47.93
69543;SHT31;56762;49.494;11.768;2023-06-24T12:39:59;21.75;50.69
69543;SHT31;56762;49.494;11.768;2023-06-24T12:42:27;21.80;51.76
69543;SHT31;56762;49.494;11.768;2023-06-24T12:44:55;21.88;51.93
69543;SHT31;56762;49.494;11.768;2023-06-24T12:47:24;21.88;52.61
69543;SHT31;56762;49.494;11.768;2023-06-24T12:49:52;21.90;51.91
69543;SHT31;56762;49.494;11.768;2023-06-24T12:52:20;21.93;51.66
69543;SHT31;56762;49.494;11.768;2023-06-24T12:54:48;22.04;49.70
69543;SHT31;56762;49.494;11.768;2023-06-24T12:57:16;22.03;51.13
69543;SHT31;56762;49.494;11.768;2023-06-24T12:59:43;21.97;52.14
69543;SHT31;56762;49.494;11.768;2023-06-24T13:02:12;22.11;51.73
69543;SHT31;56762;49.494;11.768;2023-06-24T13:04:41;22.11;50.79
69543;SHT31;56762;49.494;11.768;2023-06-24T13:07:09;22.20;50.88
69543;SHT31;56762;49.494;11.768;2023-06-24T13:09:36;22.17;50.37
69543;SHT31;56762;49.494;11.768;2023-06-24T13:12:05;22.25;50.14
69543;SHT31;56762;49.494;11.768;2023-06-24T13:14:35;22.13;50.09
69543;SHT31;56762;49.494;11.768;2023-06-24T13:17:02;22.27;47.70
69543;SHT31;56762;49.494;11.768;2023-06-24T13:19:30;22.41;48.08
69543;SHT31;56762;49.494;11.768;2023-06-24T13:22:00;22.25;48.82
69543;SHT31;56762;49.494;11.768;2023-06-24T13:24:28;22.25;49.53
69543;SHT31;56762;49.494;11.768;2023-06-24T13:26:56;22.30;47.92
69543;SHT31;56762;49.494;11.768;2023-06-24T13:29:24;22.27;49.00
69543;SHT31;56762;49.494;11.768;2023-06-24T13:31:53;22.24;48.57
69543;SHT31;56762;49.494;11.768;2023-06-24T13:34:21;22.21;48.78
69543;SHT31;56762;49.494;11.768;2023-06-24T13:36:49;22.40;47.89
69543;SHT31;56762;49.494;11.768;2023-06-24T13:39:18;22.34;46.78
69543;SHT31;56762;49.494;11.768;2023-06-24T13:41:56;22.33;47.14
69543;SHT31;56762;49.494;11.768;2023-06-24T13:44:24;22.44;48.27
69543;SHT31;56762;49.494;11.768;2023-06-24T13:46:52;22.47;47.63
69543;SHT31;56762;49.494;11.768;2023-06-24T13:49:20;22.48;45.85
69543;SHT31;56762;49.494;11.768;2023-06-24T13:51:48;22.65;44.74
69543;SHT31;56762;49.494;11.768;2023-06-24T13:54:16;22.51;46.02
69543;SHT31;56762;49.494;11.768;2023-06-24T13:56:45;22.37;46.07
69543;SHT31;56762;49.494;11.768;2023-06-24T13:59:13;22.36;43.37
69543;SHT31;56762;49.494;11.768;2023-06-24T14:01:41;22.34;43.93
69543;SHT31;56762;49.494;11.768;2023-06-24T14:04:09;22.33;44.89
69543;SHT31;56762;49.494;11.768;2023-06-24T14:06:37;22.31;44.65
69543;SHT31;56762;49.494;11.768;2023-06-24T14:09:05;22.48;44.17
69543;SHT31;56762;49.494;11.768;2023-06-24T14:11:33;22.51;43.74
69543;SHT31;56762;49.494;11.768;2023-06-24T14:14:02;22.38;44.59
69543;SHT31;56762;49.494;11.768;2023-06-24T14:16:30;22.43;44.77
69543;SHT31;56762;49.494;11.768;2023-06-24T14:18:58;22.51;44.37
69543;SHT31;56762;49.494;11.768;2023-06-24T14:21:26;22.51;45.75
69543;SHT31;56762;49.494;11.768;2023-06-24T14:23:55;22.57;43.27
69543;SHT31;56762;49.494;11.768;2023-06-24T14:26:36;22.72;42.30
69543;SHT31;56762;49.494;11.768;2023-06-24T14:29:05;22.58;43.35
69543;SHT31;56762;49.494;11.768;2023-06-24T14:31:34;22.48;44.51
69543;SHT31;56762;49.494;11.768;2023-06-24T14:34:01;22.45;43.64
69543;SHT31;56762;49.494;11.768;2023-06-24T14:36:29;22.40;44.07
69543;SHT31;56762;49.494;11.768;2023-06-24T14:38:57;22.43;44.07
69543;SHT31;56762;49.494;11.768;2023-06-24T14:41:25;22.57;42.17
69543;SHT31;56762;49.494;11.768;2023-06-24T14:43:52;22.57;43.51
69543;SHT31;56762;49.494;11.768;2023-06-24T14:46:22;22.58;41.97
69543;SHT31;56762;49.494;11.768;2023-06-24T14:48:49;22.59;41.73
69543;SHT31;56762;49.494;11.768;2023-06-24T14:51:18;22.58;42.45
69543;SHT31;56762;49.494;11.768;2023-06-24T14:53:46;22.59;43.77
69543;SHT31;56762;49.494;11.768;2023-06-24T14:56:14;22.48;44.50
69543;SHT31;56762;49.494;11.768;2023-06-24T14:58:41;22.44;45.24
69543;SHT31;56762;49.494;11.768;2023-06-24T15:01:10;22.41;45.23
69543;SHT31;56762;49.494;11.768;2023-06-24T15:03:39;22.40;45.42
69543;SHT31;56762;49.494;11.768;2023-06-24T15:06:07;22.40;45.69
69543;SHT31;56762;49.494;11.768;2023-06-24T15:08:34;22.41;45.53
69543;SHT31;56762;49.494;11.768;2023-06-24T15:11:02;22.75;44.22
69543;SHT31;56762;49.494;11.768;2023-06-24T15:13:31;22.76;44.10
69543;SHT31;56762;49.494;11.768;2023-06-24T15:15:59;22.79;44.30
69543;SHT31;56762;49.494;11.768;2023-06-24T15:18:27;22.76;45.57
69543;SHT31;56762;49.494;11.768;2023-06-24T15:20:56;22.73;46.97
69543;SHT31;56762;49.494;11.768;2023-06-24T15:23:24;22.78;46.55
69543;SHT31;56762;49.494;11.768;2023-06-24T15:25:51;22.78;46.48
69543;SHT31;56762;49.494;11.768;2023-06-24T15:28:20;22.79;47.90
69543;SHT31;56762;49.494;11.768;2023-06-24T15:30:47;22.85;47.85